Time;durP1;ratioP1;P1;durP2;ratioP2;P2;SDS_P1;SDS_P2;PMS_P1;PMS_P2;Temp;Humidity;BMP_temperature;BMP_pressure;BME280_temperature;BME280_humidity;BME280_pressure;Samples;Min_cycle;Max_cycle;Signal;HPM_P1;HPM_P2
2023/10/29 00:02:09;;;;;;;6.60;2.30;;;;;;;8.81;100.00;99731.31;7398408;19;20074;-68
2023/10/29 00:04:38;;;;;;;3.58;1.83;;;;;;;8.80;100.00;99733.03;7398549;19;20062;-68
2023/10/29 00:07:06;;;;;;;2.95;1.90;;;;;;;8.79;100.00;99728.72;7396191;19;20017;-68
2023/10/29 00:09:37;;;;;;;3.65;1.92;;;;;;;8.78;100.00;99724.41;7397887;19;20501;-68
2023/10/29 00:12:06;;;;;;;10.18;2.35;;;;;;;8.78;100.00;99723.53;7397334;19;20074;-68
2023/10/29 00:14:35;;;;;;;3.70;1.92;;;;;;;8.79;100.00;99722.63;7397698;19;20086;-68
2023/10/29 00:17:03;;;;;;;6.88;2.00;;;;;;;8.77;100.00;99717.47;7397594;19;20074;-68
2023/10/29 00:19:32;;;;;;;4.13;2.20;;;;;;;8.78;100.00;99710.47;7396620;19;20090;-67
2023/10/29 00:22:00;;;;;;;5.75;1.80;;;;;;;8.77;100.00;99709.63;7397911;19;20033;-67
2023/10/29 00:24:29;;;;;;;6.30;2.40;;;;;;;8.77;100.00;99703.50;7397817;19;20078;-68
2023/10/29 00:26:59;;;;;;;3.08;2.17;;;;;;;8.76;100.00;99697.44;7395831;19;20087;-68
2023/10/29 00:29:28;;;;;;;5.45;1.88;;;;;;;8.76;100.00;99699.22;7397327;19;20021;-68
2023/10/29 00:31:56;;;;;;;5.13;2.13;;;;;;;8.75;100.00;99705.34;7396623;19;20406;-67
2023/10/29 00:34:25;;;;;;;4.32;1.90;;;;;;;8.75;100.00;99697.50;7397574;19;20074;-68
2023/10/29 00:36:53;;;;;;;7.53;1.92;;;;;;;8.74;100.00;99698.38;7397069;19;20069;-67
2023/10/29 00:39:22;;;;;;;3.22;1.80;;;;;;;8.73;100.00;99699.28;7397522;19;20086;-69
2023/10/29 00:41:50;;;;;;;5.85;2.35;;;;;;;8.73;100.00;99694.06;7396922;19;20423;-68
2023/10/29 00:44:21;;;;;;;5.15;2.30;;;;;;;8.72;100.00;99700.19;7397282;19;20156;-69
2023/10/29 00:46:56;;;;;;;5.05;1.65;;;;;;;8.71;100.00;99693.28;7396576;19;20057;-68
2023/10/29 00:49:24;;;;;;;3.85;1.83;;;;;;;8.70;100.00;99702.84;7397222;19;20098;-68
2023/10/29 00:51:53;;;;;;;4.13;1.85;;;;;;;8.70;100.00;99702.84;7396714;19;20090;-68
2023/10/29 00:54:21;;;;;;;4.50;2.05;;;;;;;8.71;100.00;99690.66;7396559;19;20452;-67
2023/10/29 00:56:52;;;;;;;4.45;2.00;;;;;;;8.73;100.00;99684.47;7396487;19;20074;-67
2023/10/29 00:59:24;;;;;;;7.10;2.30;;;;;;;8.74;100.00;99691.38;7396468;19;20477;-68
2023/10/29 01:01:52;;;;;;;6.63;1.83;;;;;;;8.76;100.00;99680.91;7392329;19;20074;-67
2023/10/29 01:04:21;;;;;;;5.40;2.00;;;;;;;8.78;100.00;99676.47;7396701;19;20073;-67
2023/10/29 01:06:49;;;;;;;5.65;1.70;;;;;;;8.82;100.00;99669.38;7396097;19;20069;-68
2023/10/29 01:09:18;;;;;;;4.40;1.52;;;;;;;8.84;100.00;99678.03;7394519;19;20010;-69
2023/10/29 01:11:46;;;;;;;4.30;1.60;;;;;;;8.86;100.00;99677.09;7394744;19;20082;-68
2023/10/29 01:14:15;;;;;;;3.78;1.80;;;;;;;8.89;100.00;99671.75;7395898;19;20086;-68
2023/10/29 01:16:46;;;;;;;2.88;1.50;;;;;;;8.92;100.00;99671.66;7395998;19;20069;-68
2023/10/29 01:19:14;;;;;;;3.05;1.48;;;;;;;8.95;100.00;99666.31;7394422;19;20090;-67
2023/10/29 01:21:43;;;;;;;2.17;1.60;;;;;;;8.99;100.00;99666.25;7395685;19;20074;-68
2023/10/29 01:24:12;;;;;;;4.72;1.67;;;;;;;9.02;100.00;99660.91;7395748;19;20090;-68
2023/10/29 01:26:40;;;;;;;3.85;1.88;;;;;;;9.05;100.00;99661.66;7395294;19;20078;-67
2023/10/29 01:29:09;;;;;;;4.80;1.98;;;;;;;9.08;100.00;99660.69;7395877;19;20014;-66
2023/10/29 01:31:37;;;;;;;8.45;1.60;;;;;;;9.11;100.00;99655.34;7395373;19;20536;-68
2023/10/29 01:34:08;;;;;;;5.85;1.65;;;;;;;9.15;100.00;99643.03;7394302;19;20078;-68
2023/10/29 01:36:37;;;;;;;5.05;1.90;;;;;;;9.17;100.00;99633.38;7395186;19;20074;-68
2023/10/29 01:39:06;;;;;;;3.55;1.50;;;;;;;9.21;100.00;99645.44;7395529;19;20382;-68
2023/10/29 01:41:34;;;;;;;6.05;1.98;;;;;;;9.22;100.00;99637.53;7393750;19;20070;-68
2023/10/29 01:44:03;;;;;;;5.38;2.03;;;;;;;9.25;100.00;99642.66;7395414;19;20074;-68
2023/10/29 01:46:32;;;;;;;3.67;1.42;;;;;;;9.27;100.00;99635.59;7394777;19;20438;-68
2023/10/29 01:49:00;;;;;;;5.38;2.10;;;;;;;9.30;100.00;99632.03;7393466;19;20094;-68
2023/10/29 01:51:31;;;;;;;3.90;2.03;;;;;;;9.33;100.00;99631.94;7393338;19;20078;-68
2023/10/29 01:53:59;;;;;;;5.35;1.70;;;;;;;9.34;100.00;99631.03;7394026;19;20062;-69
2023/10/29 01:56:28;;;;;;;2.75;1.60;;;;;;;9.36;100.00;99633.59;7394926;19;20066;-69
2023/10/29 01:58:56;;;;;;;5.35;1.70;;;;;;;9.36;100.00;99633.59;7394936;19;20090;-67
2023/10/29 02:01:25;;;;;;;3.28;2.17;;;;;;;9.36;100.00;99633.59;7394909;19;20082;-69
2023/10/29 02:03:53;;;;;;;5.05;2.20;;;;;;;9.36;100.00;99625.75;7392601;19;20078;-68
2023/10/29 02:06:22;;;;;;;4.18;1.65;;;;;;;9.36;100.00;99623.13;7394764;19;20422;-68
2023/10/29 02:08:53;;;;;;;3.53;1.65;;;;;;;9.36;100.00;99623.13;7392753;19;20081;-69
2023/10/29 02:11:22;;;;;;;6.38;2.28;;;;;;;9.35;100.00;99614.44;7393172;19;20011;-69
2023/10/29 02:13:50;;;;;;;5.40;2.00;;;;;;;9.36;100.00;99613.50;7396531;19;20070;-67
2023/10/29 02:16:18;;;;;;;5.10;1.63;;;;;;;9.37;100.00;99601.28;7402035;19;20074;-68
2023/10/29 02:18:47;;;;;;;4.93;1.80;;;;;;;9.37;100.00;99609.97;7398550;19;20089;-68
2023/10/29 02:21:15;;;;;;;4.50;1.90;;;;;;;9.39;100.00;99612.53;7398787;19;20083;-68
2023/10/29 02:23:46;;;;;;;9.10;2.00;;;;;;;9.40;100.00;99614.25;7401714;19;20093;-68
2023/10/29 02:26:15;;;;;;;5.38;1.83;;;;;;;9.42;100.00;99625.53;7402049;19;20086;-69
2023/10/29 02:28:43;;;;;;;4.65;1.77;;;;;;;9.44;100.00;99632.41;7398804;19;20014;-68
2023/10/29 02:31:18;;;;;;;6.28;2.10;;;;;;;9.46;100.00;99637.59;7401540;19;20094;-67
2023/10/29 02:33:46;;;;;;;3.90;1.75;;;;;;;9.48;100.00;99642.78;7400223;19;20007;-67
2023/10/29 02:36:15;;;;;;;5.13;2.30;;;;;;;9.50;100.00;99639.19;7401002;19;20017;-67
2023/10/29 02:38:53;;;;;;;4.65;2.55;;;;;;;9.52;100.00;99640.00;7398264;19;20066;-68
2023/10/29 02:41:21;;;;;;;3.60;1.77;;;;;;;9.51;100.00;99633.06;7401422;19;20070;-68
2023/10/29 02:43:50;;;;;;;3.80;2.05;;;;;;;9.52;100.00;99634.75;7398496;19;20014;-67
2023/10/29 02:46:19;;;;;;;4.47;2.20;;;;;;;9.54;100.00;99640.81;7400674;19;20010;-68
2023/10/29 02:48:48;;;;;;;6.10;2.13;;;;;;;9.51;100.00;99627.81;7398051;19;20033;-68
2023/10/29 02:51:16;;;;;;;7.63;2.30;;;;;;;9.52;100.00;99631.31;7400897;19;20079;-68
2023/10/29 02:53:47;;;;;;;5.75;2.35;;;;;;;9.51;100.00;99632.22;7399358;19;20066;-68
2023/10/29 02:56:15;;;;;;;4.75;2.42;;;;;;;9.50;100.00;99633.13;7401156;19;20368;-68
2023/10/29 02:58:44;;;;;;;8.52;2.67;;;;;;;9.48;100.00;99630.56;7398208;19;20023;-68
2023/10/29 03:01:15;;;;;;;6.53;2.17;;;;;;;9.47;100.00;99635.84;7400646;19;20094;-68
2023/10/29 03:03:44;;;;;;;5.63;2.35;;;;;;;9.46;100.00;99629.75;7400330;19;20006;-68
2023/10/29 03:06:13;;;;;;;6.90;2.83;;;;;;;9.45;100.00;99625.41;7400438;19;20078;-68
2023/10/29 03:08:42;;;;;;;7.85;2.65;;;;;;;9.44;100.00;99616.72;7398047;19;20026;-68
2023/10/29 03:11:13;;;;;;;7.78;2.50;;;;;;;9.44;100.00;99621.09;7400291;19;20019;-70
2023/10/29 03:13:42;;;;;;;5.05;2.50;;;;;;;9.42;100.00;99621.13;7399253;19;20033;-67
2023/10/29 03:16:10;;;;;;;5.68;2.67;;;;;;;9.42;100.00;99608.03;7397104;19;20553;-68
2023/10/29 03:18:38;;;;;;;5.55;2.20;;;;;;;9.40;100.00;99609.88;7396393;19;20474;-67
2023/10/29 03:21:07;;;;;;;9.20;2.58;;;;;;;9.40;100.00;99601.16;7399917;19;20090;-67
2023/10/29 03:23:35;;;;;;;5.65;2.33;;;;;;;9.37;100.00;99585.56;7400406;19;20086;-68
2023/10/29 03:26:05;;;;;;;6.70;2.30;;;;;;;9.39;100.00;99586.34;7397595;19;20019;-68
2023/10/29 03:28:37;;;;;;;4.47;2.47;;;;;;;9.39;100.00;99588.97;7397534;19;20081;-67
2023/10/29 03:31:13;;;;;;;8.38;2.35;;;;;;;9.38;100.00;99584.66;7399891;19;20341;-68
2023/10/29 03:33:41;;;;;;;4.82;2.30;;;;;;;9.37;100.00;99582.94;7398850;19;20070;-68
2023/10/29 03:36:12;;;;;;;10.63;2.47;;;;;;;9.38;100.00;99590.75;7398992;19;20014;-67
2023/10/29 03:38:41;;;;;;;8.40;2.65;;;;;;;9.39;100.00;99579.38;7397274;19;20037;-68
2023/10/29 03:41:19;;;;;;;9.70;3.30;;;;;;;9.40;100.00;99582.81;7399134;19;20086;-69
2023/10/29 03:43:51;;;;;;;8.43;3.90;;;;;;;9.41;100.00;99582.78;7398781;19;20083;-69
2023/10/29 03:46:19;;;;;;;14.02;6.95;;;;;;;9.43;100.00;99585.34;7396507;19;20495;-68
2023/10/29 03:48:55;;;;;;;9.35;3.38;;;;;;;9.44;100.00;99577.44;7396887;19;20078;-68
2023/10/29 03:51:30;;;;;;;12.18;2.33;;;;;;;9.45;100.00;99578.28;7398293;19;20029;-67
2023/10/29 03:53:58;;;;;;;4.15;2.50;;;;;;;9.47;100.00;99571.25;7397197;19;20078;-66
2023/10/29 03:56:26;;;;;;;6.85;2.40;;;;;;;9.49;100.00;99574.66;7398634;19;20082;-68
2023/10/29 03:58:57;;;;;;;7.28;2.28;;;;;;;9.50;100.00;99572.88;7395957;19;20074;-67
2023/10/29 04:01:26;;;;;;;6.53;2.20;;;;;;;9.52;100.00;99571.09;7398970;19;20074;-68
2023/10/29 04:03:55;;;;;;;6.38;2.63;;;;;;;9.53;100.00;99568.41;7396459;19;20036;-68
2023/10/29 04:06:23;;;;;;;6.00;2.40;;;;;;;9.54;100.00;99562.25;7396325;19;20018;-67
2023/10/29 04:08:51;;;;;;;7.18;2.30;;;;;;;9.54;100.00;99570.13;7396313;19;20082;-68
2023/10/29 04:11:20;;;;;;;5.95;2.22;;;;;;;9.57;100.00;99569.16;7396188;19;20078;-69
2023/10/29 04:13:48;;;;;;;12.85;3.00;;;;;;;9.57;100.00;99553.44;7396849;19;20497;-68
2023/10/29 04:16:20;;;;;;;8.05;2.60;;;;;;;9.59;100.00;99562.06;7398015;19;20074;-68
2023/10/29 04:18:48;;;;;;;5.38;2.30;;;;;;;9.60;100.00;99563.78;7395779;19;20014;-68
2023/10/29 04:21:16;;;;;;;5.78;2.33;;;;;;;9.60;100.00;99567.28;7398336;19;20071;-68
2023/10/29 04:23:45;;;;;;;6.45;2.15;;;;;;;9.63;100.00;99566.31;7397789;19;20090;-68
2023/10/29 04:26:13;;;;;;;8.70;2.80;;;;;;;9.65;100.00;99555.78;7397392;19;20066;-68
2023/10/29 04:28:42;;;;;;;7.82;2.58;;;;;;;9.65;100.00;99551.38;7396012;19;20041;-68
2023/10/29 04:31:10;;;;;;;6.95;2.28;;;;;;;9.68;100.00;99547.78;7395702;19;20088;-70
2023/10/29 04:33:45;;;;;;;11.63;2.50;;;;;;;9.67;100.00;99539.09;7395418;19;20070;-72
2023/10/29 04:36:21;;;;;;;6.35;2.83;;;;;;;9.68;100.00;99535.56;7397301;19;20014;-70
2023/10/29 04:38:49;;;;;;;7.00;2.28;;;;;;;9.70;100.00;99532.88;7395576;19;20014;-68
2023/10/29 04:41:18;;;;;;;10.65;4.97;;;;;;;9.71;100.00;99530.19;7395397;19;20082;-68
2023/10/29 04:43:46;;;;;;;13.48;7.22;;;;;;;9.71;100.00;99529.34;7396817;19;20032;-68
2023/10/29 04:46:15;;;;;;;7.00;2.63;;;;;;;9.71;100.00;99524.97;7396829;19;20366;-69
2023/10/29 04:48:46;;;;;;;6.55;2.70;;;;;;;9.72;100.00;99516.19;7394808;19;20013;-68
2023/10/29 04:51:15;;;;;;;9.80;2.53;;;;;;;9.73;100.00;99522.28;7397382;19;20025;-68
2023/10/29 04:53:43;;;;;;;6.28;2.72;;;;;;;9.73;100.00;99517.91;7396299;19;20011;-69
2023/10/29 04:56:11;;;;;;;4.97;2.58;;;;;;;9.73;100.00;99512.66;7396386;19;20029;-69
2023/10/29 04:58:40;;;;;;;3.72;2.10;;;;;;;9.74;100.00;99511.75;7394694;19;20437;-69
2023/10/29 05:01:08;;;;;;;6.22;2.30;;;;;;;9.74;100.00;99513.50;7394949;19;20082;-69
2023/10/29 05:03:37;;;;;;;4.07;2.13;;;;;;;9.73;100.00;99510.06;7396295;19;20035;-68
2023/10/29 05:06:08;;;;;;;6.80;2.55;;;;;;;9.73;100.00;99510.06;7396129;19;20027;-68
2023/10/29 05:08:36;;;;;;;6.10;2.40;;;;;;;9.72;100.00;99505.72;7394845;19;20014;-69
2023/10/29 05:11:05;;;;;;;8.02;2.47;;;;;;;9.72;100.00;99492.63;7395763;19;20018;-70
2023/10/29 05:13:33;;;;;;;6.18;2.70;;;;;;;9.73;100.00;99490.84;7394368;19;20014;-69
2023/10/29 05:16:04;;;;;;;6.53;2.25;;;;;;;9.73;100.00;99483.88;7395621;19;20502;-68
2023/10/29 05:18:32;;;;;;;6.60;2.30;;;;;;;9.74;100.00;99485.56;7394379;19;20022;-68
2023/10/29 05:21:01;;;;;;;7.15;2.28;;;;;;;9.73;100.00;99478.63;7394540;19;20025;-69
2023/10/29 05:23:32;;;;;;;5.65;2.45;;;;;;;9.74;100.00;99479.47;7396042;19;20169;-69
2023/10/29 05:26:00;;;;;;;4.82;2.35;;;;;;;9.75;100.00;99473.31;7395921;19;20027;-69
2023/10/29 05:28:29;;;;;;;5.22;2.33;;;;;;;9.75;100.00;99462.84;7394371;19;20018;-69
2023/10/29 05:30:57;;;;;;;11.18;2.90;;;;;;;9.76;100.00;99457.53;7395792;19;20011;-68
2023/10/29 05:33:26;;;;;;;3.97;2.25;;;;;;;9.75;100.00;99462.84;7395487;19;20028;-68
2023/10/29 05:35:57;;;;;;;9.45;2.28;;;;;;;9.75;100.00;99453.22;7395610;19;20031;-68
2023/10/29 05:38:25;;;;;;;5.65;2.38;;;;;;;9.76;100.00;99451.47;7393865;19;20028;-67
2023/10/29 05:40:56;;;;;;;6.07;2.08;;;;;;;9.77;100.00;99450.56;7393721;19;20031;-68
2023/10/29 05:43:25;;;;;;;6.47;2.33;;;;;;;9.77;100.00;99461.03;7395205;19;20424;-67
2023/10/29 05:45:54;;;;;;;6.97;2.53;;;;;;;9.76;100.00;99460.16;7395120;19;20041;-68
2023/10/29 05:48:23;;;;;;;4.45;1.98;;;;;;;9.76;100.00;99460.16;7395400;19;20014;-68
2023/10/29 05:50:51;;;;;;;4.90;2.30;;;;;;;9.76;100.00;99452.31;7399744;19;20022;-67
2023/10/29 05:53:20;;;;;;;6.30;2.10;;;;;;;9.76;100.00;99460.16;7402815;19;20089;-67
2023/10/29 05:55:48;;;;;;;8.30;2.20;;;;;;;9.78;100.00;99454.84;7399671;19;20015;-68
2023/10/29 05:58:19;;;;;;;3.80;2.20;;;;;;;9.79;100.00;99448.69;7400089;19;20422;-68
2023/10/29 06:00:49;;;;;;;6.45;2.22;;;;;;;9.79;100.00;99446.09;7399335;19;20023;-69
2023/10/29 06:03:17;;;;;;;7.25;2.35;;;;;;;9.80;100.00;99444.34;7402548;19;20363;-68
2023/10/29 06:05:45;;;;;;;4.57;2.08;;;;;;;9.80;100.00;99434.69;7402461;19;20017;-68
2023/10/29 06:08:14;;;;;;;3.97;1.60;;;;;;;9.81;100.00;99432.91;7400201;19;20035;-68
2023/10/29 06:10:43;;;;;;;3.97;2.22;;;;;;;9.82;100.00;99421.53;7401834;19;20015;-69
2023/10/29 06:13:12;;;;;;;6.07;2.30;;;;;;;9.83;100.00;99421.50;7402361;19;20351;-67
2023/10/29 06:15:43;;;;;;;5.07;2.38;;;;;;;9.85;100.00;99431.91;7399488;19;20015;-67
2023/10/29 06:18:12;;;;;;;4.97;2.55;;;;;;;9.85;100.00;99438.00;7399513;19;20014;-67
2023/10/29 06:20:42;;;;;;;5.93;2.30;;;;;;;9.87;100.00;99437.91;7398464;19;20070;-67
2023/10/29 06:23:10;;;;;;;5.32;2.30;;;;;;;9.87;100.00;99446.66;7401921;19;20031;-67
2023/10/29 06:25:39;;;;;;;4.95;2.20;;;;;;;9.87;100.00;99451.88;7401729;19;20070;-68
2023/10/29 06:28:08;;;;;;;3.15;1.88;;;;;;;9.89;100.00;99457.91;7398915;19;20015;-68
2023/10/29 06:30:36;;;;;;;6.50;2.17;;;;;;;9.90;100.00;99450.91;7401696;19;20011;-67
2023/10/29 06:33:07;;;;;;;4.18;1.90;;;;;;;9.91;100.00;99458.72;7401709;19;20012;-68
2023/10/29 06:35:36;;;;;;;5.45;1.60;;;;;;;9.92;100.00;99470.91;7399601;19;20031;-68
2023/10/29 06:38:04;;;;;;;3.90;2.03;;;;;;;9.94;100.00;99476.94;7398602;19;20022;-67
2023/10/29 06:40:33;;;;;;;7.78;2.25;;;;;;;9.95;100.00;99475.16;7398382;19;20010;-68
2023/10/29 06:43:01;;;;;;;8.23;2.28;;;;;;;9.94;100.00;99453.38;7401230;19;20015;-69
2023/10/29 06:45:29;;;;;;;3.58;2.05;;;;;;;9.96;100.00;99463.78;7400604;19;20429;-67
2023/10/29 06:48:08;;;;;;;3.92;2.22;;;;;;;9.95;100.00;99460.28;7398857;19;20015;-67
2023/10/29 06:50:36;;;;;;;5.18;2.30;;;;;;;9.97;100.00;99462.88;7401215;19;20019;-67
2023/10/29 06:53:05;;;;;;;3.55;2.05;;;;;;;9.98;100.00;99461.94;7397934;19;20491;-67
2023/10/29 06:55:34;;;;;;;8.35;2.42;;;;;;;9.99;100.00;99466.25;7397987;19;20025;-67
2023/10/29 06:58:02;;;;;;;16.40;9.65;;;;;;;9.99;100.00;99444.47;7397903;19;20022;-67
2023/10/29 07:00:31;;;;;;;11.57;6.22;;;;;;;10.01;100.00;99445.22;7400354;19;20032;-67
2023/10/29 07:03:00;;;;;;;4.22;2.30;;;;;;;10.01;100.00;99438.25;7400480;19;20029;-68
2023/10/29 07:05:31;;;;;;;9.25;4.32;;;;;;;10.02;100.00;99439.94;7397524;19;20087;-67
2023/10/29 07:08:00;;;;;;;7.10;3.47;;;;;;;10.03;100.00;99433.78;7398018;19;20032;-67
2023/10/29 07:10:28;;;;;;;10.18;4.35;;;;;;;10.05;100.00;99433.72;7399929;19;20485;-67
2023/10/29 07:12:57;;;;;;;6.72;2.60;;;;;;;10.05;100.00;99429.34;7400377;19;20014;-68
2023/10/29 07:15:25;;;;;;;7.97;3.20;;;;;;;10.06;100.00;99432.78;7398330;19;20010;-68
2023/10/29 07:17:54;;;;;;;5.68;2.40;;;;;;;10.07;100.00;99452.84;7397564;19;20018;-69
2023/10/29 07:20:23;;;;;;;5.38;2.17;;;;;;;10.07;100.00;99453.72;7397854;19;20026;-68
2023/10/29 07:22:54;;;;;;;6.78;2.88;;;;;;;10.08;100.00;99480.75;7399822;19;20024;-67
2023/10/29 07:25:22;;;;;;;5.60;2.42;;;;;;;10.10;100.00;99468.47;7400255;19;20048;-67
2023/10/29 07:27:51;;;;;;;5.57;2.88;;;;;;;10.10;100.00;99473.69;7398330;19;20015;-67
2023/10/29 07:30:19;;;;;;;6.40;2.55;;;;;;;10.10;100.00;99457.97;7399154;19;20018;-67
2023/10/29 07:32:48;;;;;;;5.50;2.72;;;;;;;10.11;100.00;99450.06;7399121;19;20494;-67
2023/10/29 07:35:16;;;;;;;5.82;2.72;;;;;;;10.11;100.00;99459.69;7398182;19;20011;-68
2023/10/29 07:37:45;;;;;;;4.43;2.60;;;;;;;10.11;100.00;99457.91;7396641;19;20477;-67
2023/10/29 07:40:16;;;;;;;6.93;2.40;;;;;;;10.11;100.00;99463.16;7398465;19;20358;-68
2023/10/29 07:42:45;;;;;;;4.35;2.45;;;;;;;10.11;100.00;99454.44;7399522;19;20027;-68
2023/10/29 07:45:13;;;;;;;4.90;2.08;;;;;;;10.11;100.00;99450.06;7396853;19;20078;-68
2023/10/29 07:47:42;;;;;;;3.72;2.58;;;;;;;10.13;100.00;99457.00;7397767;19;20014;-68
2023/10/29 07:50:12;;;;;;;4.45;2.78;;;;;;;10.11;100.00;99449.22;7398770;19;20085;-68
2023/10/29 07:52:41;;;;;;;7.43;2.20;;;;;;;10.10;100.00;99442.25;7399303;19;20015;-68
2023/10/29 07:55:10;;;;;;;5.25;2.20;;;;;;;10.11;100.00;99433.47;7397761;19;20030;-68
2023/10/29 07:57:41;;;;;;;4.72;2.40;;;;;;;10.12;100.00;99432.53;7396453;19;20018;-68
2023/10/29 08:00:13;;;;;;;5.95;2.45;;;;;;;10.13;100.00;99431.63;7396497;19;20037;-68
2023/10/29 08:02:42;;;;;;;6.47;2.75;;;;;;;10.13;100.00;99430.78;7395952;19;20010;-68
2023/10/29 08:05:11;;;;;;;8.38;3.15;;;;;;;10.15;100.00;99437.69;7398427;19;20419;-67
2023/10/29 08:07:40;;;;;;;9.50;2.67;;;;;;;10.15;100.00;99440.28;7396481;19;20018;-67
2023/10/29 08:10:10;;;;;;;5.57;2.30;;;;;;;10.16;100.00;99435.91;7395834;19;20020;-68
2023/10/29 08:12:41;;;;;;;3.17;2.40;;;;;;;10.18;100.00;99441.94;7395041;19;20031;-65
2023/10/29 08:15:11;;;;;;;4.85;2.20;;;;;;;10.20;100.00;99438.34;7397228;19;20074;-67
2023/10/29 08:17:39;;;;;;;5.20;2.15;;;;;;;10.22;100.00;99420.78;7396412;19;20473;-67
2023/10/29 08:20:09;;;;;;;3.92;2.17;;;;;;;10.23;100.00;99417.22;7395723;19;20485;-68
2023/10/29 08:22:37;;;;;;;5.75;2.60;;;;;;;10.25;100.00;99418.03;7395834;19;20061;-68
2023/10/29 08:25:08;;;;;;;5.22;2.90;;;;;;;10.28;100.00;99410.03;7397736;19;20423;-69
2023/10/29 08:27:37;;;;;;;3.88;2.00;;;;;;;10.31;100.00;99418.69;7397046;19;20014;-67
2023/10/29 08:30:10;;;;;;;3.83;2.17;;;;;;;10.34;100.00;99418.56;7395298;19;20035;-68
2023/10/29 08:32:45;;;;;;;4.30;2.28;;;;;;;10.36;100.00;99425.50;7395890;19;20018;-68
2023/10/29 08:35:13;;;;;;;4.30;2.28;;;;;;;10.40;100.00;99427.06;7395529;19;20048;-68
2023/10/29 08:37:48;;;;;;;5.20;2.58;;;;;;;10.45;100.00;99424.25;7396226;19;20010;-68
2023/10/29 08:40:16;;;;;;;5.18;2.05;;;;;;;10.50;100.00;99427.53;7397238;19;20057;-68
2023/10/29 08:42:45;;;;;;;3.80;2.60;;;;;;;10.56;100.00;99432.50;7397058;19;20011;-69
2023/10/29 08:45:16;;;;;;;6.03;2.33;;;;;;;10.62;100.00;99425.31;7396250;19;20477;-69
2023/10/29 08:47:45;;;;;;;5.68;2.38;;;;;;;10.70;100.00;99436.28;7396131;19;20080;-68
2023/10/29 08:50:13;;;;;;;3.75;2.10;;;;;;;10.78;100.00;99434.22;7396725;19;20011;-68
2023/10/29 08:52:41;;;;;;;5.25;1.88;;;;;;;10.86;100.00;99433.88;7396918;19;20070;-69
2023/10/29 08:55:10;;;;;;;3.88;1.67;;;;;;;10.93;100.00;99427.41;7394484;19;20070;-68
2023/10/29 08:57:39;;;;;;;4.05;1.77;;;;;;;11.03;100.00;99428.72;7394912;19;20035;-69
2023/10/29 09:00:11;;;;;;;6.50;1.60;;;;;;;11.10;100.00;99434.53;7396456;19;20018;-68
2023/10/29 09:02:42;;;;;;;6.00;1.50;;;;;;;11.18;100.00;99444.69;7395078;19;20014;-68
2023/10/29 09:05:11;;;;;;;7.65;3.17;;;;;;;11.23;100.00;99440.97;7394659;19;20027;-69
2023/10/29 09:07:40;;;;;;;5.13;1.95;;;;;;;11.30;100.00;99445.91;7394713;19;20032;-67
2023/10/29 09:10:09;;;;;;;3.70;1.63;;;;;;;11.34;100.00;99452.75;7394223;19;20418;-69
2023/10/29 09:12:38;;;;;;;3.15;1.40;;;;;;;11.38;100.00;99464.81;7394740;19;20014;-67
2023/10/29 09:15:07;;;;;;;5.10;1.15;;;;;;;11.42;100.00;99442.72;7394301;19;20082;-68
2023/10/29 09:17:36;;;;;;;2.67;1.67;;;;;;;11.46;100.00;99439.06;7395296;19;20018;-68
2023/10/29 09:20:08;;;;;;;6.63;1.40;;;;;;;11.49;100.00;99427.56;7394578;19;20481;-68
2023/10/29 09:22:36;;;;;;;2.15;1.60;;;;;;;11.52;100.00;99425.59;7391399;19;20564;-69
2023/10/29 09:25:06;;;;;;;4.10;2.78;;;;;;;11.56;100.00;99432.44;7395666;19;20015;-67
2023/10/29 09:27:34;;;;;;;2.90;1.27;;;;;;;11.57;100.00;99423.66;7393609;19;20007;-68
2023/10/29 09:30:03;;;;;;;3.05;1.10;;;;;;;11.60;100.00;99419.16;7395194;19;20481;-67
2023/10/29 09:32:34;;;;;;;4.35;1.50;;;;;;;11.63;100.00;99422.50;7393862;19;20019;-67
2023/10/29 09:35:04;;;;;;;1.85;1.23;;;;;;;11.66;100.00;99429.38;7395255;19;20014;-68
2023/10/29 09:37:35;;;;;;;3.88;1.15;;;;;;;11.66;100.00;99432.00;7395060;19;20013;-67
2023/10/29 09:40:08;;;;;;;3.35;1.20;;;;;;;11.68;100.00;99422.28;7393358;19;20489;-70
2023/10/29 09:42:40;;;;;;;3.33;1.30;;;;;;;11.67;100.00;99429.31;7393138;19;20010;-67
2023/10/29 09:45:10;;;;;;;3.20;1.30;;;;;;;11.69;100.00;99414.31;7395688;19;20385;-68
2023/10/29 09:47:39;;;;;;;4.78;1.48;;;;;;;11.70;100.00;99425.66;7393367;19;20011;-68
2023/10/29 09:50:11;;;;;;;3.75;1.30;;;;;;;11.69;100.00;99422.22;7394771;19;20069;-67
2023/10/29 09:52:42;;;;;;;3.80;2.10;;;;;;;11.69;100.00;99422.22;7393327;19;20015;-67
2023/10/29 09:55:11;;;;;;;4.43;2.13;;;;;;;11.70;100.00;99433.56;7394964;19;20082;-68
2023/10/29 09:57:40;;;;;;;3.88;2.03;;;;;;;11.69;100.00;99448.47;7392442;19;20488;-68
2023/10/29 10:00:10;;;;;;;4.63;1.73;;;;;;;11.68;100.00;99466.94;7392898;19;20015;-68
2023/10/29 10:02:51;;;;;;;4.05;1.40;;;;;;;11.65;100.00;99467.94;7394856;19;20373;-68
2023/10/29 10:05:21;;;;;;;4.50;1.30;;;;;;;11.64;100.00;99476.75;7394396;19;20368;-68
2023/10/29 10:07:54;;;;;;;11.65;1.73;;;;;;;11.60;100.00;99475.19;7393545;19;20027;-67
2023/10/29 10:10:24;;;;;;;16.73;7.75;;;;;;;11.58;100.00;99466.53;7394845;19;20011;-67
2023/10/29 10:12:54;;;;;;;3.97;2.45;;;;;;;11.55;100.00;99466.66;7392547;19;20023;-68
2023/10/29 10:15:22;;;;;;;3.20;1.30;;;;;;;11.52;100.00;99457.13;7393943;19;20022;-68
2023/10/29 10:17:59;;;;;;;3.13;1.80;;;;;;;11.50;100.00;99468.63;7393126;19;20015;-68
2023/10/29 10:20:28;;;;;;;2.22;1.50;;;;;;;11.47;100.00;99480.13;7392225;19;20366;-66
2023/10/29 10:23:03;;;;;;;2.22;1.35;;;;;;;11.45;100.00;99482.00;7394199;19;20010;-68
2023/10/29 10:25:33;;;;;;;3.15;1.38;;;;;;;11.45;100.00;99468.88;7395187;19;20086;-66
2023/10/29 10:28:03;;;;;;;3.65;1.60;;;;;;;11.45;100.00;99471.50;7393025;19;20015;-68
2023/10/29 10:30:33;;;;;;;3.60;1.73;;;;;;;11.46;100.00;99490.72;7393655;19;20010;-65
2023/10/29 10:33:12;;;;;;;3.13;1.73;;;;;;;11.46;100.00;99488.97;7394111;19;20025;-67
2023/10/29 10:35:42;;;;;;;4.53;2.50;;;;;;;11.47;100.00;99495.06;7399156;19;20682;-67
2023/10/29 10:38:13;;;;;;;5.45;3.25;;;;;;;11.46;100.00;99499.47;7399253;19;20011;-68
2023/10/29 10:40:42;;;;;;;2.85;2.60;;;;;;;11.48;100.00;99502.84;7398271;19;20414;-68
2023/10/29 10:43:11;;;;;;;3.53;2.92;;;;;;;11.50;100.00;99503.66;7401109;19;20010;-68
2023/10/29 10:45:40;;;;;;;6.70;2.33;;;;;;;11.53;100.00;99497.41;7401118;19;20023;-69
2023/10/29 10:48:08;;;;;;;16.60;8.98;;;;;;;11.55;100.00;99478.03;7399111;19;20014;-68
2023/10/29 10:50:38;;;;;;;5.60;3.13;;;;;;;11.58;100.00;99483.13;7400604;19;20011;-69
2023/10/29 10:53:07;;;;;;;5.47;2.55;;;;;;;11.62;100.00;99478.56;7400930;19;20011;-69
2023/10/29 10:55:39;;;;;;;5.13;3.05;;;;;;;11.66;100.00;99477.50;7398014;19;20070;-68
2023/10/29 10:58:07;;;;;;;4.55;2.40;;;;;;;11.72;100.00;99476.38;7399226;19;20010;-68
2023/10/29 11:00:37;;;;;;;6.45;2.78;;;;;;;11.77;100.00;99476.19;7397801;19;20018;-68
2023/10/29 11:03:07;;;;;;;3.90;3.10;;;;;;;11.83;100.00;99462.75;7399987;19;20506;-68
2023/10/29 11:05:35;;;;;;;8.73;3.10;;;;;;;11.88;100.00;99461.59;7400008;19;20040;-68
2023/10/29 11:08:04;;;;;;;4.97;3.22;;;;;;;11.95;100.00;99461.31;7398255;19;20014;-68
2023/10/29 11:10:33;;;;;;;4.57;2.92;;;;;;;12.01;100.00;99471.56;7402018;19;20022;-68
2023/10/29 11:13:22;;;;;;;5.20;3.03;;;;;;;12.08;100.00;99470.34;7407805;19;20410;-68
2023/10/29 11:15:51;;;;;;;5.53;2.95;;;;;;;12.16;100.00;99462.09;7399725;19;20011;-68
2023/10/29 11:18:29;;;;;;;5.88;2.53;;;;;;;12.24;100.00;99459.06;7398258;19;20414;-69
2023/10/29 11:20:59;;;;;;;8.90;2.67;;;;;;;12.31;100.00;99453.44;7397099;19;20022;-68
2023/10/29 11:23:29;;;;;;;5.40;2.50;;;;;;;12.38;100.00;99451.34;7404537;19;20014;-68
2023/10/29 11:26:23;;;;;;;4.15;2.40;;;;;;;12.47;100.00;99456.16;7397417;19;20533;-67
2023/10/29 11:28:55;;;;;;;5.80;1.73;;;;;;;12.53;100.00;99453.19;7397052;19;20036;-67
2023/10/29 11:31:25;;;;;;;3.97;1.67;;;;;;;12.59;100.00;99446.78;7399246;19;20019;-68
2023/10/29 11:34:27;;;;;;;5.60;1.60;;;;;;;12.63;99.59;99431.69;7399367;19;20022;-67
2023/10/29 11:36:57;;;;;;;7.68;1.70;;;;;;;12.70;100.00;99441.81;7397350;19;20066;-67
2023/10/29 11:39:36;;;;;;;2.85;1.75;;;;;;;12.73;98.00;99439.97;7400018;19;20028;-67
2023/10/29 11:42:29;;;;;;;1.55;1.00;;;;;;;12.77;95.61;99447.63;7398260;19;20402;-67